Airfield :
LOGIN :

Register | Disclaimer

   EN    FR    IT 

 










Legend :    VFR   Marginal VFR   IFR   Intensive IFR   Very Intensive IFR
Visi :
Ceiling :
>= 8 km
>= 3000ft
5 to 8 km
1000 to 3000 ft
1500m to 5 km
500 to 1000 ft
800 to 1500m
200 to 500 ft
< 800m
< 200 ft
Symbols :   Thunderstorms  Fog  Heavy snow  Heavy precipitations  Wind > 20 kt
SIGMETs :     Misc.  Thunderstorms  Icing  Turbulence  Mountain Waves  Volcanic Ashes






- Airport Elevation : 55 ft


LIRU - Urbe

CURRENT METAR :
  • 191520Z 31010KT 9999 -TSRA FEW015CB BKN035 11/09 Q1018

EXPIRED METARs :
  • 191455Z 25007KT 9999 4000N TSRA FEW010CB SCT020 14/07 Q1018
  • 191440Z 24010KT 220V280 9999 5000N VCTS FEW012 14/07 Q1018
  • 191350Z 23010KT 9999 FEW030 14/08 Q1018
  • 191330Z 22010KT 8000 SCT030 15/08 Q1018
  • 191250Z 25007KT 2500 BR SCT010 BKN030 14/10 Q1021

TAF TAF LIRU
Valid from the 19 at 15:00 until the 20 at 00:00 UTC


191400Z 1915/1924 VRB04KT 4000 BR BKN018 BKN050
TEMPO 1915/1916 4000 SHRA
BECMG 1916/1918 32010KT



MET'MAP, your aeronautical weather chart ! - Copyright ORBIFLY December 2007 - Disclaimer

ORBIFLY MET'MAP TEAM :

Programming & Development : Alexandra Zaïnal
Concept & original design : Baudouin d'Aumeries
Assistance for programming : Marc-Olivier Méhu
Technical & hardware support : Manuel Goepfert

Contact : metmap@orbifly.com




SOURCES & CREDITS :

   NOAA